METAR stanice u blizini

 

LYBE - Beograd / Surčin, Srbija
Ažurirano: 05/12/2022 05:00
Vedro
Vedro
 Pravac vetra JI
Vetar: JI 24 km/h
Temperatura: 7°C
Osećaj hladnoće: 3°C
Tačka rose: 3°C
Vlažnost: 76%
Pritisak: 1022 hPa
Pregled: Vedro
Vidljivost: greater than 10 km
2022/12/05 04:00 LYBE 050400Z 13013KT CAVOK 07/03 Q1022 NOSIG
LYBT - Beograd / Batajnica, Srbija
Ažurirano: 05/12/2022 05:00
Vedro
Vedro
 Pravac vetra IJI
Vetar: IJI 15 km/h
Temperatura: 5°C
Osećaj hladnoće: 2°C
Tačka rose: 3°C
Vlažnost: 87%
Pritisak: 1023 hPa
Pregled: Vedro
Vidljivost: greater than 10 km
2022/12/05 04:00 LYBT 050400Z 11008KT CAVOK 05/03 Q1023 NOSIG
LYVR - Vršac, Srbija
Ažurirano: 05/12/2022 05:00
Slaba kiša, Showers, Delimično oblačno
Slaba kiša, Showers, Delimično oblačno
 Pravac vetra JI
Vetar: JI 57 km/h, Maks.: 81 km/h
Temperatura: 7°C
Osećaj hladnoće: 1°C
Tačka rose: 4°C
Vlažnost: 81%
Pritisak: 1023 hPa
Pregled: Slaba kiša, Showers
Oblaci: Partly Cloudy
Vidljivost: 10 km
2022/12/05 04:00 LYVR 050400Z AUTO 13031G44KT 9999 -SHRA NSC 07/04 Q1023
 
LYKV - Lađevci, Srbija
Ažurirano: 05/12/2022 05:00
Vedro
Vedro
 Pravac vetra varies
Vetar: varies 2 km/h
Temperatura: -2°C
Tačka rose: -2°C
Vlažnost: 100%
Pritisak: 1024 hPa
Pregled: Vedro
Vidljivost: greater than 10 km
2022/12/05 04:00 LYKV 050400Z VRB01KT CAVOK M02/M02 Q1024 NOSIG
LYNI - Niš, Srbija
Ažurirano: 05/12/2022 05:00
Partly Cloudy
Partly Cloudy
 Pravac vetra I
Vetar: I 13 km/h
Temperatura: 7°C
Osećaj hladnoće: 5°C
Tačka rose: 3°C
Vlažnost: 76%
Pritisak: 1025 hPa
Oblaci: Partly Cloudy
Vidljivost: 10 km
Cloud details: Few Clouds 518 m
Partly Cloudy 1128 m
2022/12/05 04:00 LYNI 050400Z 08007KT 040V100 9999 FEW017 SCT037 07/03 Q1025 NOSIG
BKPR - Priština, Srbija
Ažurirano: 05/12/2022 05:00
Mostly Cloudy
Mostly Cloudy
 Pravac vetra J
Vetar: J 6 km/h
Temperatura: 6°C
Tačka rose: 6°C
Vlažnost: 100%
Pritisak: 1024 hPa
Oblaci: Mostly Cloudy
Vidljivost: 10 km
Cloud details: Partly Cloudy 305 m
Mostly Cloudy 762 m
2022/12/05 04:00 BKPR 050400Z 18003KT 9999 SCT010 BKN025 06/06 Q1024 NOSIG
 
LHPP - Pecs / Pogany, Hungary
Ažurirano: 05/12/2022 04:45
Mist, Oblačno
Mist, Oblačno
 Pravac vetra varies
Vetar: varies 6 km/h
Temperatura: 4°C
Tačka rose: 4°C
Vlažnost: 100%
Pritisak: 1021 hPa
Pregled: Mist
Oblaci: Oblačno
Vidljivost: 2 km
Cloud details: Oblačno 30 m
2022/12/05 03:45 LHPP 050345Z AUTO VRB03KT 2000 BR OVC001 04/04 Q1021
LHUD - Szeged, Hungary
Ažurirano: 04/07/2019 01:45
NOT Current
Vedro
Vedro
 Pravac vetra S
Vetar: S 7 km/h
Temperatura: 18°C
Tačka rose: 13°C
Vlažnost: 73%
Pritisak: 1019 hPa
Pregled: Vedro
Vidljivost: greater than 10 km
2019/07/03 23:45 LHUD 032345Z 35004KT CAVOK 18/13 Q1019
LRTR - Timisoara, Romania
Ažurirano: 05/12/2022 05:00
Padavine, Pretežno oblačno
Padavine, Pretežno oblačno
 Pravac vetra I
Vetar: I 13 km/h
Temperatura: 5°C
Osećaj hladnoće: 2°C
Tačka rose: 5°C
Vlažnost: 100%
Pritisak: 1024 hPa
Pregled: Padavine
Oblaci: Mostly Cloudy
Vidljivost: 8 km
Cloud details: Mostly Cloudy 1463 m
2022/12/05 04:00 LRTR 050400Z 10007KT 8000 RA BKN048 05/05 Q1024
 
LRCV - Craiova, Romania
Ažurirano: 05/12/2022 04:00
NOT Current
Mist, Oblačno
Mist, Oblačno
 Pravac vetra I
Vetar: I 20 km/h
Pregled: Mist
Oblaci: Oblačno
Vidljivost: 5 km
Cloud details: Mostly Cloudy 91 m
Oblačno 152 m
2022/12/05 03:00 LRCV 050300Z 08011KT 5000 BR BKN003 OVC005 03/// Q1028
LBSF - Sofia, Bulgaria
Ažurirano: 05/12/2022 05:00
Oblačno
Oblačno
 Pravac vetra I
Vetar: I 13 km/h
Temperatura: 4°C
Osećaj hladnoće: 1°C
Tačka rose: 3°C
Vlažnost: 93%
Pritisak: 1026 hPa
Oblaci: Oblačno
Vidljivost: 10 km
Cloud details: Partly Cloudy 518 m
Oblačno 610 m
2022/12/05 04:00 LBSF 050400Z AUTO 10007KT 9999 SCT017/// OVC020/// 04/03 Q1026 NOSIG
LWSK - Skoplje, Makedonija
Ažurirano: 05/12/2022 05:00
Oblačno
Oblačno
 Pravac vetra calm
Vetar: Tišina
Temperatura: 8°C
Tačka rose: 7°C
Vlažnost: 93%
Pritisak: 1025 hPa
Oblaci: Oblačno
Vidljivost: 10 km
Cloud details: Mostly Cloudy 762 m
Oblačno 1372 m
2022/12/05 04:00 LWSK 050400Z 00000KT 9999 BKN025 OVC045 08/07 Q1025 NOSIG
 
LYPG - Podgorica, Crna Gora
Ažurirano: 05/12/2022 05:00
Magla, Delimično oblačno
Magla, Delimično oblačno
 Pravac vetra calm
Vetar: Tišina
Temperatura: 6°C
Tačka rose: 6°C
Vlažnost: 100%
Pritisak: 1023 hPa
Pregled: Magla
Oblaci: Partly Cloudy
Vidljivost: 0 km
Cloud details: Few Clouds 1219 m
Partly Cloudy 2134 m
2022/12/05 04:00 LYPG 050400Z 00000KT 0400 R18/0650D R36/1400D FG FEW040 SCT070 06/06 Q1023 NOSIG
LQSA - Sarajevo, Bosna i Hercegovina
Ažurirano: 05/12/2022 05:00
Partly Cloudy
Partly Cloudy
 Pravac vetra varies
Vetar: varies 2 km/h
Temperatura: 4°C
Tačka rose: 4°C
Vlažnost: 100%
Pritisak: 1021 hPa
Oblaci: Partly Cloudy
Vidljivost: 6 km
Cloud details: Few Clouds 152 m
Partly Cloudy 1676 m
2022/12/05 04:00 LQSA 050400Z VRB01KT 6000 FEW005 SCT055 04/04 Q1021
LDOS - Osijek, Hrvatksa
Ažurirano: 05/12/2022 05:00
Vedro
Vedro
 Pravac vetra SSI
Vetar: SSI 7 km/h
Temperatura: 2°C
Osećaj hladnoće: 0°C
Tačka rose: 2°C
Vlažnost: 100%
Pritisak: 1022 hPa
Pregled: Vedro
Vidljivost: greater than 10 km
2022/12/05 04:00 LDOS 050400Z 02004KT CAVOK 02/02 Q1022